Time;durP1;ratioP1;P1;durP2;ratioP2;P2;SDS_P1;SDS_P2;PMS_P1;PMS_P2;Temp;Humidity;BMP_temperature;BMP_pressure;BME280_temperature;BME280_humidity;BME280_pressure;Samples;Min_cycle;Max_cycle;Signal;HPM_P1;HPM_P2
2021/07/26 00:01:20;;;;;;;4.73;3.67;;;21.50;54.30;;;;;;5092321;28;20565;-79
2021/07/26 00:03:45;;;;;;;6.73;4.57;;;21.30;60.50;;;;;;5093463;28;20173;-80
2021/07/26 00:06:11;;;;;;;4.73;3.87;;;21.10;67.10;;;;;;5093852;28;20172;-80
2021/07/26 00:08:37;;;;;;;7.07;3.97;;;21.00;72.30;;;;;;5093537;28;20695;-80
2021/07/26 00:11:05;;;;;;;6.20;3.90;;;20.90;76.80;;;;;;5092994;28;20222;-80
2021/07/26 00:13:31;;;;;;;5.87;3.73;;;20.90;78.40;;;;;;5092425;28;20178;-81
2021/07/26 00:15:57;;;;;;;4.23;3.47;;;21.00;79.40;;;;;;5095013;28;20171;-79
2021/07/26 00:18:23;;;;;;;6.10;3.80;;;21.10;75.30;;;;;;5093204;28;20178;-80
2021/07/26 00:20:49;;;;;;;5.30;4.07;;;21.10;72.70;;;;;;5093528;28;20542;-80
2021/07/26 00:23:15;;;;;;;5.43;4.00;;;21.10;73.70;;;;;;5093165;28;20549;-79
2021/07/26 00:25:41;;;;;;;6.07;3.77;;;21.10;72.50;;;;;;5093690;28;20178;-81
2021/07/26 00:28:09;;;;;;;6.17;3.70;;;21.00;72.50;;;;;;5092300;28;20172;-81
2021/07/26 00:30:35;;;;;;;5.20;4.27;;;21.00;76.80;;;;;;5092919;28;20211;-80
2021/07/26 00:33:01;;;;;;;5.53;3.80;;;20.80;80.30;;;;;;5092468;28;20171;-80
2021/07/26 00:35:27;;;;;;;6.67;4.10;;;20.70;83.90;;;;;;5092902;28;20179;-79
2021/07/26 00:37:52;;;;;;;6.20;4.70;;;20.60;86.60;;;;;;5093906;28;20622;-80
2021/07/26 00:40:18;;;;;;;6.73;4.00;;;20.60;90.00;;;;;;5093521;28;20635;-80
2021/07/26 00:42:44;;;;;;;5.13;3.83;;;20.50;91.50;;;;;;5092196;28;20645;-78
2021/07/26 00:45:10;;;;;;;6.10;4.47;;;20.50;91.80;;;;;;5093804;28;20622;-79
2021/07/26 00:47:36;;;;;;;7.07;4.33;;;20.50;91.50;;;;;;5093899;28;20170;-80
2021/07/26 00:50:03;;;;;;;6.50;4.40;;;20.50;91.60;;;;;;5094592;28;20213;-80
2021/07/26 00:52:29;;;;;;;5.30;3.93;;;20.40;92.70;;;;;;5092944;28;20538;-81
2021/07/26 00:54:55;;;;;;;7.63;4.00;;;20.40;92.90;;;;;;5092913;28;20168;-82
2021/07/26 00:57:22;;;;;;;6.13;4.47;;;20.30;93.60;;;;;;5091422;28;20169;-82
2021/07/26 00:59:51;;;;;;;8.70;4.77;;;20.20;94.10;;;;;;5093169;28;20175;-81
2021/07/26 01:02:17;;;;;;;6.63;4.10;;;20.30;94.30;;;;;;5091196;28;20178;-81
2021/07/26 01:04:43;;;;;;;6.03;4.43;;;20.30;94.40;;;;;;5091544;28;20179;-80
2021/07/26 01:07:09;;;;;;;6.37;4.00;;;20.30;94.10;;;;;;5092860;28;20181;-82
2021/07/26 01:09:35;;;;;;;6.10;4.17;;;20.30;94.20;;;;;;5092681;28;20209;-80
2021/07/26 01:12:00;;;;;;;8.60;4.97;;;20.40;94.00;;;;;;5091570;28;20190;-78
2021/07/26 01:14:27;;;;;;;7.43;4.27;;;20.30;94.50;;;;;;5092298;28;20170;-79
2021/07/26 01:16:52;;;;;;;6.57;4.30;;;20.30;94.40;;;;;;5092030;28;20650;-79
2021/07/26 01:19:18;;;;;;;6.93;4.37;;;20.30;94.20;;;;;;5092456;28;20268;-79
2021/07/26 01:21:44;;;;;;;8.00;3.90;;;20.30;94.40;;;;;;5092526;28;20203;-78
2021/07/26 01:24:10;;;;;;;5.13;3.90;;;20.10;94.10;;;;;;5092711;28;20200;-80
2021/07/26 01:26:36;;;;;;;8.17;4.43;;;20.20;94.50;;;;;;5091281;28;20182;-79
2021/07/26 01:29:05;;;;;;;8.60;4.07;;;20.10;94.40;;;;;;5092876;28;20193;-81
2021/07/26 01:31:31;;;;;;;5.50;4.30;;;20.00;95.30;;;;;;5092353;28;20177;-81
2021/07/26 01:33:57;;;;;;;6.23;3.97;;;19.90;95.70;;;;;;5092155;28;20197;-80
2021/07/26 01:36:24;;;;;;;6.63;4.13;;;19.90;95.90;;;;;;5095913;28;20174;-79
2021/07/26 01:38:53;;;;;;;7.30;4.57;;;19.90;96.10;;;;;;5095993;28;20693;-79
2021/07/26 01:41:25;;;;;;;7.37;3.87;;;19.90;95.90;;;;;;5096067;28;20174;-79
2021/07/26 01:44:13;;;;;;;9.47;4.60;;;19.90;96.10;;;;;;5095809;28;20164;-77
2021/07/26 01:46:59;;;;;;;5.03;4.30;;;19.90;96.10;;;;;;5095478;28;20167;-79
2021/07/26 01:49:36;;;;;;;6.83;4.13;;;19.70;96.10;;;;;;5095287;28;20192;-77
2021/07/26 01:52:04;;;;;;;8.97;3.83;;;19.60;96.80;;;;;;5095832;28;20249;-79
2021/07/26 01:54:30;;;;;;;5.37;3.73;;;19.50;97.50;;;;;;5095875;28;20689;-78
2021/07/26 01:56:56;;;;;;;7.03;3.77;;;19.40;98.00;;;;;;5096603;28;20170;-78
2021/07/26 01:59:22;;;;;;;5.40;4.10;;;19.40;98.20;;;;;;5095420;28;20244;-78
2021/07/26 02:01:48;;;;;;;6.37;4.20;;;19.50;98.20;;;;;;5095309;28;20164;-79
2021/07/26 02:04:15;;;;;;;6.13;3.93;;;19.60;97.90;;;;;;5095408;28;20210;-80
2021/07/26 02:06:41;;;;;;;6.13;4.20;;;19.50;97.90;;;;;;5095484;28;20171;-80
2021/07/26 02:09:07;;;;;;;6.53;3.83;;;19.50;97.90;;;;;;5095766;28;20168;-79
2021/07/26 02:11:32;;;;;;;7.30;3.93;;;19.50;98.20;;;;;;5095386;28;20176;-79
2021/07/26 02:13:58;;;;;;;6.00;3.83;;;19.50;98.20;;;;;;5095631;28;20167;-78
2021/07/26 02:16:24;;;;;;;5.70;3.90;;;19.40;98.30;;;;;;5096608;28;20534;-78
2021/07/26 02:18:49;;;;;;;5.43;3.83;;;19.50;98.30;;;;;;5096487;28;20183;-79
2021/07/26 02:21:15;;;;;;;5.57;3.70;;;19.40;98.50;;;;;;5095446;28;20182;-78
2021/07/26 02:23:41;;;;;;;6.00;3.70;;;19.30;98.40;;;;;;5096068;28;20679;-77
2021/07/26 02:26:06;;;;;;;5.03;3.87;;;19.30;98.80;;;;;;5096409;28;20183;-78
2021/07/26 02:28:32;;;;;;;5.57;3.77;;;19.20;99.10;;;;;;5097618;28;20173;-78
2021/07/26 02:30:58;;;;;;;7.23;4.33;;;19.30;99.10;;;;;;5116117;28;20209;-79
2021/07/26 02:33:23;;;;;;;5.97;3.80;;;19.20;99.30;;;;;;5115039;28;20173;-75
2021/07/26 02:35:50;;;;;;;6.00;4.07;;;19.20;99.60;;;;;;5098973;28;20201;-80
2021/07/26 02:38:15;;;;;;;7.83;4.47;;;19.20;99.70;;;;;;5096942;28;20179;-82
2021/07/26 02:40:41;;;;;;;5.43;3.60;;;19.20;99.50;;;;;;5095619;28;20191;-77
2021/07/26 02:43:07;;;;;;;9.53;4.37;;;19.10;99.90;;;;;;5094921;28;20164;-80
2021/07/26 02:45:33;;;;;;;8.60;4.63;;;19.00;99.90;;;;;;5093943;28;20180;-80
2021/07/26 02:47:58;;;;;;;6.87;4.50;;;19.00;99.90;;;;;;5095225;28;20172;-79
2021/07/26 02:50:27;;;;;;;8.00;4.47;;;19.00;99.90;;;;;;5094981;28;20217;-78
2021/07/26 02:52:53;;;;;;;8.23;4.47;;;19.00;99.90;;;;;;5094920;28;20696;-80
2021/07/26 02:55:19;;;;;;;7.27;4.53;;;19.10;99.90;;;;;;5096398;28;20305;-80
2021/07/26 02:57:46;;;;;;;5.93;4.20;;;19.10;99.90;;;;;;5097013;28;20171;-78
2021/07/26 03:00:12;;;;;;;6.97;4.30;;;19.00;99.90;;;;;;5100730;28;20182;-80
2021/07/26 03:02:38;;;;;;;7.27;4.00;;;19.00;99.90;;;;;;5109192;28;20176;-77
2021/07/26 03:05:04;;;;;;;6.20;4.23;;;19.00;99.90;;;;;;5105756;28;20180;-77
2021/07/26 03:07:32;;;;;;;5.90;4.47;;;19.00;99.90;;;;;;5113003;28;20180;-77
2021/07/26 03:09:57;;;;;;;7.07;4.77;;;19.00;99.90;;;;;;5111610;28;20210;-77
2021/07/26 03:12:23;;;;;;;7.90;4.90;;;19.00;99.90;;;;;;5112864;28;20160;-76
2021/07/26 03:14:49;;;;;;;7.07;4.40;;;19.00;99.90;;;;;;5112900;28;20191;-76
2021/07/26 03:17:15;;;;;;;8.83;4.40;;;18.90;99.90;;;;;;5107951;28;20166;-77
2021/07/26 03:19:41;;;;;;;8.37;4.80;;;18.80;99.90;;;;;;5106403;28;20183;-78
2021/07/26 03:22:52;;;;;;;6.97;4.37;;;18.80;99.90;;;;;;5104988;28;20186;-79
2021/07/26 03:25:19;;;;;;;7.37;4.70;;;18.70;99.90;;;;;;5107700;28;20576;-78
2021/07/26 03:27:45;;;;;;;9.97;4.90;;;18.80;99.90;;;;;;5105009;28;20210;-81
2021/07/26 03:30:11;;;;;;;9.93;5.57;;;18.80;99.90;;;;;;5106258;28;20211;-80
2021/07/26 03:32:36;;;;;;;7.20;4.80;;;18.80;99.90;;;;;;5109321;28;20588;-77
2021/07/26 03:35:03;;;;;;;7.20;4.97;;;18.80;99.90;;;;;;5106305;28;20168;-77
2021/07/26 03:37:29;;;;;;;9.73;4.90;;;18.80;99.90;;;;;;5107455;28;20217;-80
2021/07/26 03:39:55;;;;;;;8.60;5.70;;;18.70;99.90;;;;;;5111289;28;20176;-78
2021/07/26 03:42:20;;;;;;;10.30;5.13;;;18.80;99.90;;;;;;5103313;28;20191;-80
2021/07/26 03:44:47;;;;;;;8.60;5.53;;;18.80;99.90;;;;;;5095142;28;20172;-78
2021/07/26 03:47:13;;;;;;;7.03;5.27;;;18.80;99.90;;;;;;5093990;28;20270;-80
2021/07/26 03:49:38;;;;;;;10.93;5.80;;;18.80;99.90;;;;;;5096790;28;20710;-78
2021/07/26 03:52:04;;;;;;;10.30;5.70;;;18.90;99.90;;;;;;5097339;28;20193;-81
2021/07/26 03:54:30;;;;;;;6.20;5.33;;;18.90;99.90;;;;;;5097338;28;20559;-79
2021/07/26 03:56:58;;;;;;;9.50;5.20;;;18.90;99.90;;;;;;5093664;28;20175;-81
2021/07/26 03:59:25;;;;;;;8.07;5.37;;;18.90;99.90;;;;;;5095277;28;20175;-79
2021/07/26 04:01:55;;;;;;;8.60;5.13;;;18.90;99.90;;;;;;5094491;28;20251;-78
2021/07/26 04:04:20;;;;;;;8.63;5.50;;;18.90;99.90;;;;;;5094034;28;20774;-79
2021/07/26 04:06:50;;;;;;;11.10;6.30;;;18.90;99.90;;;;;;5096916;28;20177;-80
2021/07/26 04:09:17;;;;;;;9.37;5.83;;;18.90;99.90;;;;;;5093810;28;20165;-79
2021/07/26 04:11:43;;;;;;;9.93;6.37;;;18.90;99.90;;;;;;5092640;28;20669;-80
2021/07/26 04:14:10;;;;;;;7.70;5.93;;;19.00;99.90;;;;;;5093440;28;20156;-80
2021/07/26 04:16:36;;;;;;;7.57;5.93;;;19.10;99.90;;;;;;5093326;28;20168;-79
2021/07/26 04:19:03;;;;;;;10.30;5.20;;;19.20;99.90;;;;;;5093132;28;20216;-80
2021/07/26 04:21:29;;;;;;;8.27;5.60;;;19.20;99.90;;;;;;5093215;28;20181;-81
2021/07/26 04:23:56;;;;;;;8.90;6.10;;;19.20;99.90;;;;;;5093172;28;20188;-81
2021/07/26 04:26:22;;;;;;;13.47;6.03;;;19.30;99.90;;;;;;5092878;28;20263;-79
2021/07/26 04:28:47;;;;;;;10.03;6.00;;;19.30;99.90;;;;;;5093031;28;20201;-80
2021/07/26 04:31:13;;;;;;;9.67;6.40;;;19.30;99.90;;;;;;5093117;28;20621;-79
2021/07/26 04:33:39;;;;;;;13.43;7.17;;;19.20;99.90;;;;;;5093369;28;20246;-77
2021/07/26 04:36:05;;;;;;;10.13;7.30;;;19.20;99.90;;;;;;5092872;28;20209;-77
2021/07/26 04:38:31;;;;;;;13.70;8.30;;;19.20;99.90;;;;;;5091944;28;20213;-78
2021/07/26 04:40:58;;;;;;;10.27;7.17;;;19.10;99.90;;;;;;5092664;28;20169;-78
2021/07/26 04:43:23;;;;;;;11.50;7.30;;;19.20;99.90;;;;;;5092817;28;20165;-78
2021/07/26 04:45:50;;;;;;;9.83;6.03;;;19.20;99.90;;;;;;5093037;28;20156;-78
2021/07/26 04:48:15;;;;;;;9.47;6.20;;;19.30;99.90;;;;;;5092617;28;20179;-78
2021/07/26 04:50:41;;;;;;;7.87;5.80;;;19.30;99.90;;;;;;5093668;28;20205;-77
2021/07/26 04:53:07;;;;;;;10.03;5.53;;;19.20;99.90;;;;;;5091819;28;20210;-76
2021/07/26 04:55:33;;;;;;;8.33;5.43;;;19.20;99.90;;;;;;5092596;28;20173;-81
2021/07/26 04:57:58;;;;;;;8.70;5.13;;;19.30;99.90;;;;;;5093083;28;20161;-78
2021/07/26 05:00:26;;;;;;;7.33;5.40;;;19.30;99.90;;;;;;5092797;28;20175;-79
2021/07/26 05:02:53;;;;;;;10.13;4.90;;;19.30;99.90;;;;;;5092625;28;20251;-80
2021/07/26 05:05:18;;;;;;;6.43;4.87;;;19.40;99.90;;;;;;5092218;28;20174;-79
2021/07/26 05:07:44;;;;;;;6.47;4.90;;;19.40;99.90;;;;;;5092476;28;20549;-80
2021/07/26 05:10:11;;;;;;;11.03;5.20;;;19.40;99.90;;;;;;5096090;28;20215;-79
2021/07/26 05:12:36;;;;;;;8.17;5.03;;;19.40;99.90;;;;;;5095104;28;20198;-78
2021/07/26 05:15:03;;;;;;;6.27;4.50;;;19.40;99.90;;;;;;5095481;28;20172;-79
2021/07/26 05:17:29;;;;;;;7.27;4.93;;;19.50;99.90;;;;;;5096601;28;20170;-80
2021/07/26 05:19:54;;;;;;;7.10;4.43;;;19.40;99.90;;;;;;5095314;28;20185;-79
2021/07/26 05:22:20;;;;;;;6.60;5.37;;;19.30;99.90;;;;;;5095424;28;20616;-81
2021/07/26 05:24:46;;;;;;;11.67;5.00;;;19.30;99.90;;;;;;5095679;28;20241;-79
2021/07/26 05:27:12;;;;;;;13.23;4.93;;;19.40;99.90;;;;;;5096753;28;20249;-80
2021/07/26 05:29:38;;;;;;;7.13;5.03;;;19.30;99.90;;;;;;5097138;28;20279;-77
2021/07/26 05:32:05;;;;;;;5.47;4.73;;;19.40;99.90;;;;;;5097103;28;20244;-79
2021/07/26 05:34:31;;;;;;;10.33;5.80;;;19.40;99.90;;;;;;5095678;28;20632;-81
2021/07/26 05:36:56;;;;;;;8.10;4.90;;;19.50;99.90;;;;;;5096018;28;20185;-77
2021/07/26 05:39:25;;;;;;;10.17;5.93;;;19.50;99.90;;;;;;5094930;28;20219;-78
2021/07/26 05:41:53;;;;;;;9.57;4.90;;;19.60;99.90;;;;;;5095893;28;20168;-80
2021/07/26 05:44:19;;;;;;;7.67;5.30;;;19.60;99.90;;;;;;5096045;28;20243;-78
2021/07/26 05:46:45;;;;;;;7.50;4.80;;;19.50;99.90;;;;;;5095957;28;20169;-78
2021/07/26 05:49:10;;;;;;;7.97;4.47;;;19.60;99.90;;;;;;5096219;28;20676;-80
2021/07/26 05:51:36;;;;;;;9.27;5.37;;;19.70;99.90;;;;;;5096239;28;20250;-78
2021/07/26 05:54:02;;;;;;;8.37;5.47;;;19.70;99.30;;;;;;5114530;28;20165;-79
2021/07/26 05:56:35;;;;;;;7.97;4.97;;;19.80;99.10;;;;;;5120723;28;20194;-80
2021/07/26 05:59:02;;;;;;;8.40;4.97;;;19.70;98.70;;;;;;5120666;28;20157;-79
2021/07/26 06:04:13;;;;;;;8.13;5.33;;;19.70;97.40;;;;;;5116511;28;20193;-78
2021/07/26 06:06:47;;;;;;;8.00;5.40;;;19.70;98.00;;;;;;5105918;28;20170;-78
2021/07/26 06:09:16;;;;;;;7.10;4.97;;;19.60;99.70;;;;;;5101334;28;20218;-77
2021/07/26 06:12:00;;;;;;;8.57;5.97;;;19.60;99.90;;;;;;5096253;28;20183;-79
2021/07/26 06:14:26;;;;;;;7.43;5.67;;;19.50;99.90;;;;;;5094730;28;20164;-79
2021/07/26 06:16:53;;;;;;;6.33;4.90;;;19.50;99.90;;;;;;5095637;28;20502;-81
2021/07/26 06:19:21;;;;;;;7.67;5.50;;;19.50;99.90;;;;;;5095576;28;20176;-80
2021/07/26 06:21:52;;;;;;;7.33;5.27;;;19.40;99.90;;;;;;5095426;28;20218;-80
2021/07/26 06:24:20;;;;;;;8.67;5.73;;;19.50;99.90;;;;;;5093967;28;20531;-79
2021/07/26 06:26:46;;;;;;;7.93;6.90;;;19.40;99.90;;;;;;5097089;28;20594;-78
2021/07/26 06:29:12;;;;;;;9.90;7.70;;;19.50;99.90;;;;;;5120500;28;20182;-77
2021/07/26 06:31:38;;;;;;;11.70;9.03;;;19.50;99.90;;;;;;5120073;28;20169;-77
2021/07/26 06:34:05;;;;;;;12.60;9.03;;;19.40;99.90;;;;;;5120165;28;20184;-78
2021/07/26 06:36:31;;;;;;;11.80;9.77;;;19.40;99.90;;;;;;5118512;28;20190;-78
2021/07/26 06:38:57;;;;;;;13.40;11.20;;;19.50;99.90;;;;;;5118538;28;20231;-78
2021/07/26 06:41:26;;;;;;;14.40;11.00;;;19.30;99.90;;;;;;5107773;28;20181;-80
2021/07/26 06:43:55;;;;;;;13.97;10.47;;;19.40;99.90;;;;;;5094488;28;20183;-77
2021/07/26 06:46:24;;;;;;;15.47;13.17;;;19.30;99.90;;;;;;5095325;28;20259;-79
2021/07/26 06:48:49;;;;;;;14.23;12.40;;;19.30;99.90;;;;;;5095504;28;20168;-80
2021/07/26 06:51:16;;;;;;;15.70;12.70;;;19.30;99.90;;;;;;5095276;28;20211;-79
2021/07/26 06:53:42;;;;;;;19.63;14.07;;;19.30;99.90;;;;;;5095559;28;20660;-81
2021/07/26 06:56:09;;;;;;;19.17;14.93;;;19.30;99.90;;;;;;5094603;28;20164;-81
2021/07/26 06:58:36;;;;;;;22.20;17.17;;;19.30;99.90;;;;;;5099371;28;20186;-80
2021/07/26 07:01:07;;;;;;;20.77;16.10;;;19.20;99.90;;;;;;5106954;28;20160;-78
2021/07/26 07:03:33;;;;;;;22.43;16.30;;;19.20;99.90;;;;;;5104603;28;20701;-78
2021/07/26 07:06:03;;;;;;;18.73;16.40;;;19.20;99.90;;;;;;5109703;28;20175;-80
2021/07/26 07:08:29;;;;;;;21.27;15.90;;;19.20;99.90;;;;;;5110231;28;20209;-80
2021/07/26 07:11:07;;;;;;;20.43;16.40;;;19.20;99.90;;;;;;5096769;28;20199;-80
2021/07/26 07:13:35;;;;;;;24.33;16.37;;;19.30;99.90;;;;;;5094979;28;20202;-81
2021/07/26 07:16:06;;;;;;;21.40;16.63;;;19.40;99.90;;;;;;5094559;28;20655;-80
2021/07/26 07:18:32;;;;;;;20.83;15.87;;;19.30;99.90;;;;;;5094387;28;20190;-81
2021/07/26 07:20:57;;;;;;;18.37;15.57;;;19.30;99.90;;;;;;5094322;28;20176;-81
2021/07/26 07:23:23;;;;;;;18.43;14.87;;;19.30;99.90;;;;;;5094802;28;20192;-80
2021/07/26 07:25:49;;;;;;;18.80;15.27;;;19.40;99.90;;;;;;5094253;28;20169;-78
2021/07/26 07:28:14;;;;;;;22.77;15.80;;;19.30;99.90;;;;;;5092993;28;20175;-78
2021/07/26 07:30:40;;;;;;;19.57;15.87;;;19.40;99.90;;;;;;5094125;28;20618;-78
2021/07/26 07:33:06;;;;;;;18.70;15.90;;;19.50;99.90;;;;;;5093781;28;20160;-77
2021/07/26 07:35:33;;;;;;;20.10;16.07;;;19.60;99.90;;;;;;5092847;28;20186;-78
2021/07/26 07:37:59;;;;;;;17.40;14.80;;;19.70;99.90;;;;;;5094412;28;20168;-79
2021/07/26 07:40:24;;;;;;;19.20;15.30;;;19.70;99.90;;;;;;5093457;28;20202;-81
2021/07/26 07:42:50;;;;;;;17.87;15.03;;;19.90;99.90;;;;;;5094409;28;20248;-78
2021/07/26 07:45:16;;;;;;;17.53;15.63;;;20.00;99.90;;;;;;5092955;28;20182;-79
2021/07/26 07:47:42;;;;;;;23.77;19.87;;;20.10;99.90;;;;;;5094295;28;20168;-81
2021/07/26 07:50:12;;;;;;;21.10;14.90;;;20.10;99.90;;;;;;5095492;28;20201;-82
2021/07/26 07:52:39;;;;;;;23.00;14.67;;;20.10;99.90;;;;;;5107995;28;20154;-78
2021/07/26 07:55:06;;;;;;;22.53;15.43;;;20.20;99.70;;;;;;5107639;28;20176;-79
2021/07/26 07:57:35;;;;;;;18.80;14.97;;;20.30;98.80;;;;;;5109000;28;20185;-77
2021/07/26 08:00:01;;;;;;;19.37;14.07;;;20.20;97.90;;;;;;5108830;28;20234;-76
2021/07/26 08:02:27;;;;;;;18.80;14.73;;;20.20;98.40;;;;;;5104607;28;20169;-82
2021/07/26 08:04:53;;;;;;;20.93;14.67;;;20.10;96.70;;;;;;5095117;28;20217;-80
2021/07/26 08:07:21;;;;;;;17.23;14.27;;;20.10;95.20;;;;;;5096577;28;20245;-81
2021/07/26 08:09:48;;;;;;;22.67;15.87;;;20.10;95.70;;;;;;5095888;28;20209;-79
2021/07/26 08:12:14;;;;;;;20.57;15.93;;;20.20;95.50;;;;;;5094666;28;20168;-78
2021/07/26 08:14:40;;;;;;;23.33;15.50;;;20.10;94.60;;;;;;5095086;28;20166;-78
2021/07/26 08:17:06;;;;;;;23.00;15.40;;;19.90;95.80;;;;;;5093502;28;20684;-79
2021/07/26 08:19:31;;;;;;;22.43;15.50;;;19.80;97.10;;;;;;5093408;28;20221;-79
2021/07/26 08:21:57;;;;;;;19.30;14.93;;;19.70;97.00;;;;;;5094380;28;20173;-78
2021/07/26 08:24:23;;;;;;;21.67;15.97;;;19.60;97.30;;;;;;5093857;28;20237;-79
2021/07/26 08:26:49;;;;;;;26.90;16.90;;;19.60;97.00;;;;;;5093595;28;20170;-79
2021/07/26 08:29:14;;;;;;;27.47;17.53;;;19.70;96.80;;;;;;5093591;28;20168;-79
2021/07/26 08:31:40;;;;;;;27.80;18.37;;;19.80;96.60;;;;;;5092768;28;20179;-79
2021/07/26 08:34:05;;;;;;;26.93;19.17;;;19.80;96.20;;;;;;5093562;28;20169;-80
2021/07/26 08:36:31;;;;;;;31.53;19.47;;;19.80;95.90;;;;;;5093458;28;20650;-79
2021/07/26 08:38:57;;;;;;;25.83;17.23;;;19.80;95.70;;;;;;5093201;28;20652;-80
2021/07/26 08:41:22;;;;;;;29.40;19.87;;;19.90;95.10;;;;;;5094140;28;20166;-79
2021/07/26 08:43:49;;;;;;;27.80;16.77;;;20.00;93.20;;;;;;5095782;28;20661;-81
2021/07/26 08:46:19;;;;;;;25.70;17.30;;;20.00;92.70;;;;;;5097227;28;20632;-80
2021/07/26 08:48:47;;;;;;;21.57;15.93;;;20.10;91.60;;;;;;5097310;28;20173;-82
2021/07/26 08:51:20;;;;;;;23.17;16.13;;;20.10;89.50;;;;;;5095927;28;20680;-78
2021/07/26 08:53:50;;;;;;;23.40;15.03;;;20.10;88.30;;;;;;5096130;28;20270;-79
2021/07/26 08:56:20;;;;;;;22.30;15.03;;;20.10;88.70;;;;;;5097618;28;20723;-79
2021/07/26 08:58:46;;;;;;;19.13;14.00;;;20.10;89.20;;;;;;5097725;28;20670;-79
2021/07/26 09:01:13;;;;;;;17.10;13.57;;;20.30;87.40;;;;;;5097711;28;20630;-78
2021/07/26 09:03:39;;;;;;;19.47;14.63;;;20.40;85.30;;;;;;5097483;28;20255;-79
2021/07/26 09:06:05;;;;;;;17.80;14.13;;;20.40;87.30;;;;;;5098229;28;20659;-79
2021/07/26 09:08:35;;;;;;;20.10;13.77;;;20.30;86.50;;;;;;5097710;28;20177;-78
2021/07/26 09:11:02;;;;;;;17.90;12.43;;;20.30;86.70;;;;;;5097355;28;20203;-79
2021/07/26 09:13:40;;;;;;;17.00;13.27;;;20.20;86.80;;;;;;5095577;28;20207;-79
2021/07/26 09:16:15;;;;;;;15.47;12.97;;;20.20;84.30;;;;;;5095976;28;20535;-80
2021/07/26 09:18:42;;;;;;;15.37;11.63;;;20.40;82.50;;;;;;5096624;28;20267;-79
2021/07/26 09:21:08;;;;;;;17.23;12.17;;;20.40;81.40;;;;;;5097436;28;20609;-78
2021/07/26 09:23:38;;;;;;;14.93;11.67;;;20.50;79.70;;;;;;5097296;28;20222;-79
2021/07/26 09:26:27;;;;;;;16.50;11.87;;;20.60;78.20;;;;;;5097208;28;20169;-79
2021/07/26 09:28:53;;;;;;;15.07;11.50;;;20.60;75.50;;;;;;5096353;28;20252;-81
2021/07/26 09:31:19;;;;;;;15.13;11.43;;;20.70;71.20;;;;;;5096186;28;20292;-80
2021/07/26 09:33:44;;;;;;;15.00;11.30;;;20.90;69.80;;;;;;5096917;28;20174;-81
2021/07/26 09:36:17;;;;;;;16.30;12.30;;;21.00;61.20;;;;;;5096608;28;20244;-78
2021/07/26 09:39:03;;;;;;;16.23;12.50;;;21.00;53.80;;;;;;5097020;28;20170;-82
2021/07/26 09:41:47;;;;;;;14.73;11.10;;;21.10;48.50;;;;;;5095973;28;20672;-80
2021/07/26 09:44:26;;;;;;;15.03;11.23;;;21.30;41.10;;;;;;5095784;28;20254;-81
2021/07/26 09:46:53;;;;;;;14.53;11.10;;;21.50;31.70;;;;;;5096649;28;20177;-80
2021/07/26 09:49:21;;;;;;;14.63;10.77;;;21.60;25.20;;;;;;5096495;28;20162;-79
2021/07/26 09:52:08;;;;;;;14.33;9.90;;;21.60;12.40;;;;;;5097502;28;20178;-79
2021/07/26 09:54:40;;;;;;;14.57;10.23;;;21.60;11.30;;;;;;5094159;28;20175;-80
2021/07/26 09:57:18;;;;;;;13.20;9.37;;;21.70;5.20;;;;;;5094947;28;20642;-78
2021/07/26 09:59:46;;;;;;;12.67;8.87;;;21.70;1.90;;;;;;5097828;28;20760;-79
2021/07/26 10:02:20;;;;;;;13.37;10.07;;;21.70;1.00;;;;;;5097568;28;20169;-78
2021/07/26 10:04:47;;;;;;;10.10;8.60;;;21.80;1.00;;;;;;5096357;28;20171;-80
2021/07/26 10:07:15;;;;;;;11.97;8.63;;;21.90;1.00;;;;;;5095858;28;20175;-81
2021/07/26 10:09:42;;;;;;;14.90;9.20;;;21.90;1.00;;;;;;5095498;28;20400;-81
2021/07/26 10:12:18;;;;;;;11.87;8.83;;;21.90;1.00;;;;;;5096033;28;20159;-80
2021/07/26 10:14:46;;;;;;;12.93;8.40;;;21.90;1.00;;;;;;5096405;28;20159;-83
2021/07/26 10:17:13;;;;;;;10.60;8.57;;;22.10;1.00;;;;;;5097000;28;20198;-80
2021/07/26 10:19:39;;;;;;;11.87;7.53;;;22.10;1.00;;;;;;5095379;28;20651;-79
2021/07/26 10:22:08;;;;;;;11.47;7.47;;;22.10;1.00;;;;;;5095733;28;20171;-79
2021/07/26 10:24:42;;;;;;;9.13;6.87;;;22.10;1.00;;;;;;5095748;28;20235;-79
2021/07/26 10:27:16;;;;;;;8.10;6.53;;;22.30;1.00;;;;;;5095517;28;20672;-78
2021/07/26 10:29:57;;;;;;;8.77;6.77;;;22.30;1.00;;;;;;5095884;28;20682;-80
2021/07/26 10:32:36;;;;;;;9.40;7.00;;;22.50;1.00;;;;;;5095729;28;20188;-81
2021/07/26 10:35:23;;;;;;;11.40;7.00;;;22.40;1.00;;;;;;5096027;28;20269;-79
2021/07/26 10:37:49;;;;;;;7.83;6.03;;;22.20;1.00;;;;;;5095145;28;20273;-78
2021/07/26 10:40:23;;;;;;;8.70;5.80;;;22.10;1.00;;;;;;5095804;28;20174;-78
2021/07/26 10:42:53;;;;;;;9.73;5.80;;;22.10;1.00;;;;;;5101071;28;20167;-79
2021/07/26 10:45:34;;;;;;;7.37;5.20;;;22.30;1.00;;;;;;5119944;28;20160;-79
2021/07/26 10:48:22;;;;;;;10.13;5.07;;;22.50;1.00;;;;;;5118305;28;20244;-80
2021/07/26 10:50:55;;;;;;;7.57;5.57;;;22.80;1.00;;;;;;5114659;28;20232;-79
2021/07/26 10:53:33;;;;;;;8.87;5.63;;;22.90;99.90;;;;;;5111930;28;20180;-78
2021/07/26 10:56:15;;;;;;;8.30;6.30;;;22.70;1.00;;;;;;5101993;28;20175;-79
2021/07/26 10:58:59;;;;;;;7.90;5.50;;;22.70;1.00;;;;;;5095768;28;20183;-80
2021/07/26 11:01:28;;;;;;;8.07;5.77;;;22.70;1.00;;;;;;5095198;28;20210;-80
2021/07/26 11:03:57;;;;;;;8.60;6.23;;;22.90;99.90;;;;;;5095735;28;20243;-80
2021/07/26 11:06:35;;;;;;;6.93;5.77;;;23.10;99.90;;;;;;5103921;28;20595;-76
2021/07/26 11:09:19;;;;;;;8.07;5.40;;;22.90;99.90;;;;;;5096081;28;20169;-80
2021/07/26 11:11:49;;;;;;;7.77;5.03;;;22.90;92.80;;;;;;5094781;28;20184;-80
2021/07/26 11:14:15;;;;;;;6.13;5.00;;;22.90;59.00;;;;;;5095810;28;20165;-79
2021/07/26 11:17:11;;;;;;;7.70;5.03;;;23.10;1.00;;;;;;5106386;28;20177;-79
2021/07/26 11:19:37;;;;;;;6.53;4.93;;;23.30;1.00;;;;;;5118051;28;20183;-79
2021/07/26 11:22:17;;;;;;;5.63;4.73;;;23.40;1.00;;;;;;5118510;28;20174;-78
2021/07/26 11:24:48;;;;;;;12.93;4.90;;;23.50;1.00;;;;;;5115980;28;20193;-79
2021/07/26 11:27:23;;;;;;;6.73;4.10;;;23.40;1.00;;;;;;5117058;28;20157;-79
2021/07/26 11:29:53;;;;;;;8.10;5.67;;;23.30;1.00;;;;;;5107574;28;20206;-82
2021/07/26 11:32:29;;;;;;;6.80;4.90;;;23.30;99.90;;;;;;5096146;28;20165;-79
2021/07/26 11:34:58;;;;;;;8.03;4.97;;;23.30;1.00;;;;;;5095407;28;20204;-78
2021/07/26 11:37:36;;;;;;;7.80;5.10;;;23.30;1.00;;;;;;5095384;28;20164;-81
2021/07/26 11:40:07;;;;;;;17.30;13.63;;;23.30;99.90;;;;;;5094736;28;20638;-82
2021/07/26 11:42:35;;;;;;;8.80;5.77;;;23.30;1.00;;;;;;5094063;28;20161;-79
2021/07/26 11:45:02;;;;;;;10.03;7.03;;;23.20;70.40;;;;;;5094659;28;20263;-79
2021/07/26 11:47:37;;;;;;;7.93;6.80;;;22.90;99.90;;;;;;5094162;28;20294;-80
2021/07/26 11:50:07;;;;;;;9.77;5.97;;;22.80;1.00;;;;;;5093406;28;20196;-78
2021/07/26 11:52:32;;;;;;;9.07;6.50;;;22.70;1.00;;;;;;5092427;28;20231;-79
2021/07/26 11:54:58;;;;;;;12.60;10.13;;;22.90;1.00;;;;;;5093978;28;20174;-79
2021/07/26 11:57:24;;;;;;;11.77;7.20;;;23.10;1.00;;;;;;5092498;28;20176;-78
2021/07/26 11:59:55;;;;;;;7.50;6.67;;;23.30;1.00;;;;;;5093773;28;20170;-78
2021/07/26 12:02:36;;;;;;;9.77;6.83;;;23.30;99.90;;;;;;5093591;28;20265;-79
2021/07/26 12:05:09;;;;;;;9.33;6.23;;;23.10;99.90;;;;;;5097357;28;20258;-80
2021/07/26 12:07:44;;;;;;;8.30;5.90;;;23.00;1.00;;;;;;5093823;28;20177;-80
2021/07/26 12:10:11;;;;;;;13.23;11.43;;;22.80;1.00;;;;;;5093049;28;20415;-81
2021/07/26 12:12:39;;;;;;;19.67;17.57;;;22.60;1.00;;;;;;5094374;28;20164;-79
2021/07/26 12:15:27;;;;;;;15.77;13.97;;;22.50;1.00;;;;;;5097598;28;20176;-77
2021/07/26 12:18:02;;;;;;;15.93;13.33;;;22.50;1.00;;;;;;5094944;28;20188;-78
2021/07/26 12:20:28;;;;;;;8.63;7.47;;;22.50;1.00;;;;;;5093843;28;20179;-78
2021/07/26 12:22:56;;;;;;;11.10;8.60;;;22.50;1.00;;;;;;5097941;28;20180;-83
2021/07/26 12:25:23;;;;;;;14.07;12.17;;;22.40;1.00;;;;;;5099472;28;20192;-79
2021/07/26 12:27:58;;;;;;;14.43;11.93;;;22.40;1.00;;;;;;5093628;28;20171;-79
2021/07/26 12:30:35;;;;;;;13.07;10.50;;;22.40;1.00;;;;;;5096391;28;20209;-79
2021/07/26 12:33:01;;;;;;;10.07;8.57;;;22.50;1.00;;;;;;5097608;28;20178;-80
2021/07/26 12:35:30;;;;;;;11.13;7.70;;;21.90;1.00;;;;;;5101365;28;20164;-78
2021/07/26 12:38:02;;;;;;;9.67;8.10;;;21.40;1.00;;;;;;5101745;28;20172;-81
2021/07/26 12:40:29;;;;;;;9.20;8.30;;;21.20;1.00;;;;;;5100232;28;20174;-76
2021/07/26 12:43:13;;;;;;;9.40;7.83;;;21.00;1.00;;;;;;5102594;28;20188;-77
2021/07/26 12:45:42;;;;;;;10.70;9.40;;;21.00;1.00;;;;;;5102403;28;20233;-78
2021/07/26 12:48:13;;;;;;;13.60;10.40;;;21.10;1.00;;;;;;5099257;28;20645;-79
2021/07/26 12:50:44;;;;;;;15.07;10.47;;;21.10;1.00;;;;;;5099483;28;20212;-80